»·PEaware :: AAL1182 KSEA-KLAX

AAL1182 :: KSEA-KLAX

FLIGHT INFORMATION

Flight Status: Arrived
Operator:
American Airlines
More flights by this operator :: More flights under this callsign
Pilot: Anonymous 17564 (17564)
Aircraft: AIRBUS A319
(A319)
More flights by this aircraft type
Origin: KSEA Seattle-Tacoma Intl
United States
Destination: KLAX Los Angeles Intl
United States
More flights between these airports :: More routes between these airports
Route: SUMMA1 LKV FRA REBRG IRNMN2
File this flight plan on PilotEdge
Remarks:
Altitude:
(Current/Filed)
37,000ft
Speed:
(Current/Filed)
340kts
Departed: 24-Nov-18 04:28 PM
Arrived: 24-Nov-18 06:31 PM
Distance/Time
Traveled:
829nm/2:03
Distance/Time
To Go:
Arrived

Flight Plot

Page will automatically refresh every two minutes.

Flight plan parsing failed; only flown route is shown


Map Options




Map Legend


Flown Route
Filed Route
Departure Airport
Arrival Airport
Navaid (VOR, NDB)
Fix

Horizontal Profiles

Position Reports

Time Latitude Longitude Heading Altitude Ground
Speed
24-Nov-18 15:36 47.446082 -122.300802 145 447ft 0kts
24-Nov-18 15:37 47.446082 -122.300802 145 447ft 0kts
24-Nov-18 15:38 47.446082 -122.300802 145 447ft 0kts
24-Nov-18 15:39 47.446082 -122.300802 145 447ft 0kts
24-Nov-18 15:40 47.446082 -122.300802 145 447ft 0kts
24-Nov-18 15:41 47.446082 -122.300802 145 447ft 0kts
24-Nov-18 15:42 47.446082 -122.300802 145 447ft 0kts
24-Nov-18 15:43 47.446082 -122.300802 145 447ft 0kts
24-Nov-18 15:44 47.446082 -122.300802 145 447ft 0kts
24-Nov-18 15:45 47.446082 -122.300802 145 447ft 0kts
24-Nov-18 15:46 47.446082 -122.300802 145 447ft 0kts
24-Nov-18 15:47 47.446082 -122.300802 145 447ft 0kts
24-Nov-18 15:48 47.446082 -122.300802 145 447ft 0kts
24-Nov-18 15:49 47.446082 -122.300802 145 447ft 0kts
24-Nov-18 15:50 47.446082 -122.300802 145 447ft 0kts
24-Nov-18 15:51 47.446082 -122.300802 145 447ft 0kts
24-Nov-18 15:52 47.446082 -122.300802 145 447ft 0kts
24-Nov-18 15:53 47.446082 -122.300802 145 447ft 0kts
24-Nov-18 15:54 47.446082 -122.300802 145 447ft 0kts
24-Nov-18 15:55 47.446082 -122.300802 145 447ft 0kts
24-Nov-18 15:56 47.446082 -122.300802 145 447ft 0kts
24-Nov-18 15:57 47.446082 -122.300802 145 447ft 0kts
24-Nov-18 15:58 47.446082 -122.300802 145 447ft 0kts
24-Nov-18 15:59 47.446082 -122.300802 145 447ft 0kts
24-Nov-18 16:00 47.446082 -122.300802 145 447ft 0kts
24-Nov-18 16:01 47.446082 -122.300802 145 447ft 0kts
24-Nov-18 16:02 47.446082 -122.300802 145 447ft 0kts
24-Nov-18 16:03 47.446082 -122.300802 145 447ft 0kts
24-Nov-18 16:04 47.446082 -122.300802 145 447ft 0kts
24-Nov-18 16:05 47.446082 -122.300802 145 447ft 0kts
24-Nov-18 16:06 47.446082 -122.300802 145 447ft 0kts
24-Nov-18 16:07 47.446082 -122.300802 145 447ft 0kts
24-Nov-18 16:08 47.446082 -122.300802 145 447ft 0kts
24-Nov-18 16:09 47.446082 -122.300802 145 447ft 0kts
24-Nov-18 16:10 47.446082 -122.300802 145 447ft 0kts
24-Nov-18 16:11 47.446082 -122.300802 145 447ft 0kts
24-Nov-18 16:12 47.446082 -122.300802 145 447ft 0kts
24-Nov-18 16:13 47.446082 -122.300802 145 447ft 0kts
24-Nov-18 16:14 47.446082 -122.300802 145 447ft 0kts
24-Nov-18 16:15 47.446082 -122.300802 145 447ft 0kts
24-Nov-18 16:16 47.446082 -122.300802 145 447ft 0kts
24-Nov-18 16:17 47.446082 -122.300802 145 447ft 0kts
24-Nov-18 16:18 47.446082 -122.300802 145 447ft 0kts
24-Nov-18 16:19 47.446462 -122.301207 145 447ft 2kts
24-Nov-18 16:20 47.446896 -122.301103 256 447ft 0kts
24-Nov-18 16:21 47.446896 -122.301105 256 447ft 0kts
24-Nov-18 16:22 47.446896 -122.301108 256 447ft 0kts
24-Nov-18 16:23 47.446830 -122.301619 264 447ft 14kts
24-Nov-18 16:24 47.447627 -122.304265 272 447ft 0kts
24-Nov-18 16:25 47.448860 -122.306278 0 447ft 13kts
24-Nov-18 16:26 47.452242 -122.306200 0 447ft 11kts
24-Nov-18 16:27 47.455469 -122.306225 359 447ft 15kts
24-Nov-18 16:28 47.461216 -122.306163 0 447ft 21kts
24-Nov-18 16:29 47.463667 -122.309019 269 447ft 0kts
24-Nov-18 16:30 47.463667 -122.309022 269 447ft 0kts
24-Nov-18 16:31 47.459592 -122.311055 180 447ft 86kts
24-Nov-18 16:32 47.413527 -122.311297 179 2664ft 189kts
24-Nov-18 16:33 47.352402 -122.310665 178 6012ft 247kts
24-Nov-18 16:34 47.278314 -122.309819 180 8947ft 277kts
24-Nov-18 16:35 47.198057 -122.293834 160 11840ft 328kts
24-Nov-18 16:36 47.109817 -122.218492 150 14067ft 404kts
24-Nov-18 16:37 47.006048 -122.137145 167 16668ft 435kts
24-Nov-18 16:38 46.885940 -122.090444 168 19153ft 454kts
24-Nov-18 16:39 46.761688 -122.042898 168 21193ft 467kts
24-Nov-18 16:40 46.634127 -121.994471 168 22819ft 479kts
24-Nov-18 16:41 46.503630 -121.944254 168 24191ft 489kts
24-Nov-18 16:42 46.371246 -121.893275 168 25439ft 496kts
24-Nov-18 16:43 46.236849 -121.841783 168 26463ft 502kts
24-Nov-18 16:44 46.101915 -121.790350 169 27586ft 500kts
24-Nov-18 16:45 45.967922 -121.739555 169 28700ft 497kts
24-Nov-18 16:46 45.834481 -121.689257 169 29772ft 494kts
24-Nov-18 16:47 45.701739 -121.639473 169 30724ft 493kts
24-Nov-18 16:48 45.568950 -121.589918 170 31611ft 492kts
24-Nov-18 16:49 45.436348 -121.540692 170 32475ft 492kts
24-Nov-18 16:50 45.303894 -121.491759 171 33295ft 491kts
24-Nov-18 16:51 45.171771 -121.443187 171 34065ft 491kts
24-Nov-18 16:52 45.039627 -121.394865 171 34795ft 491kts
24-Nov-18 16:53 44.906963 -121.346552 171 35450ft 492kts
24-Nov-18 16:54 44.774286 -121.298482 171 36108ft 492kts
24-Nov-18 16:55 44.641853 -121.250717 171 36769ft 492kts
24-Nov-18 16:56 44.508900 -121.202997 171 37186ft 494kts
24-Nov-18 16:57 44.375812 -121.155445 171 37187ft 492kts
24-Nov-18 16:58 44.243223 -121.108302 171 37188ft 492kts
24-Nov-18 16:59 44.110292 -121.061263 171 37183ft 493kts
24-Nov-18 17:00 43.976826 -121.014240 171 37179ft 494kts
24-Nov-18 17:01 43.843758 -120.967593 171 37180ft 495kts
24-Nov-18 17:02 43.710452 -120.921060 171 37181ft 494kts
24-Nov-18 17:03 43.576795 -120.874634 171 37182ft 496kts
24-Nov-18 17:04 43.443204 -120.828429 171 37183ft 495kts
24-Nov-18 17:05 43.309323 -120.782342 171 37183ft 495kts
24-Nov-18 17:06 43.175328 -120.736426 171 37183ft 495kts
24-Nov-18 17:07 43.041942 -120.690932 171 37183ft 495kts
24-Nov-18 17:08 42.908435 -120.645590 171 37186ft 495kts
24-Nov-18 17:09 42.774685 -120.600377 171 37186ft 494kts
24-Nov-18 17:10 42.641356 -120.555506 171 37183ft 495kts
24-Nov-18 17:11 42.507307 -120.510587 171 37181ft 496kts
24-Nov-18 17:12 42.394668 -120.488518 178 37179ft 490kts
24-Nov-18 17:13 42.236661 -120.460119 178 37178ft 491kts
24-Nov-18 17:14 42.123294 -120.439568 178 37178ft 492kts
24-Nov-18 17:15 41.987565 -120.415017 178 37178ft 492kts
24-Nov-18 17:16 41.852139 -120.390614 178 37176ft 491kts
24-Nov-18 17:17 41.716354 -120.366232 178 37172ft 491kts
24-Nov-18 17:18 41.580940 -120.342013 178 37170ft 491kts
24-Nov-18 17:19 41.445907 -120.317974 178 37168ft 490kts
24-Nov-18 17:20 41.310934 -120.294042 178 37167ft 489kts
24-Nov-18 17:21 41.175876 -120.270205 177 37164ft 488kts
24-Nov-18 17:22 41.041265 -120.246548 177 37160ft 487kts
24-Nov-18 17:23 40.906609 -120.222977 177 37155ft 487kts
24-Nov-18 17:24 40.772475 -120.199592 177 37149ft 487kts
24-Nov-18 17:25 40.637961 -120.176238 177 37145ft 486kts
24-Nov-18 17:26 40.504253 -120.153119 177 37143ft 486kts
24-Nov-18 17:27 40.369944 -120.129989 177 37142ft 486kts
24-Nov-18 17:28 40.236069 -120.107029 177 37141ft 486kts
24-Nov-18 17:29 40.101569 -120.084048 177 37151ft 486kts
24-Nov-18 17:30 39.967567 -120.061249 177 37148ft 486kts
24-Nov-18 17:31 39.833556 -120.038541 177 37144ft 486kts
24-Nov-18 17:32 39.699358 -120.015892 177 37141ft 486kts
24-Nov-18 17:33 39.565394 -119.993382 177 37140ft 487kts
24-Nov-18 17:34 39.431140 -119.970893 177 37139ft 486kts
24-Nov-18 17:35 39.297031 -119.948532 177 37138ft 486kts
24-Nov-18 17:36 39.162709 -119.926224 177 37134ft 487kts
24-Nov-18 17:37 39.028225 -119.903963 176 37120ft 486kts
24-Nov-18 17:38 38.894126 -119.881853 176 37117ft 486kts
24-Nov-18 17:39 38.760003 -119.859823 176 37121ft 485kts
24-Nov-18 17:40 38.626221 -119.837931 176 37121ft 485kts
24-Nov-18 17:41 38.492139 -119.816075 176 37120ft 484kts
24-Nov-18 17:42 38.358649 -119.794396 176 37117ft 483kts
24-Nov-18 17:43 38.225042 -119.772774 176 37114ft 483kts
24-Nov-18 17:44 38.092131 -119.751348 176 37111ft 483kts
24-Nov-18 17:45 37.958640 -119.729915 176 37108ft 483kts
24-Nov-18 17:46 37.825157 -119.708556 176 37110ft 483kts
24-Nov-18 17:47 37.691903 -119.687317 176 37107ft 482kts
24-Nov-18 17:48 37.558405 -119.666109 176 37088ft 483kts
24-Nov-18 17:49 37.425013 -119.645002 176 37082ft 483kts
24-Nov-18 17:50 37.291584 -119.623966 176 37077ft 483kts
24-Nov-18 17:51 37.158589 -119.603064 175 37069ft 483kts
24-Nov-18 17:52 37.025253 -119.595367 184 37064ft 479kts
24-Nov-18 17:53 36.891597 -119.598320 184 37061ft 478kts
24-Nov-18 17:54 36.758425 -119.601006 183 37058ft 478kts
24-Nov-18 17:55 36.625570 -119.603517 183 37062ft 478kts
24-Nov-18 17:56 36.492486 -119.605936 183 37066ft 478kts
24-Nov-18 17:57 36.359305 -119.608284 183 37068ft 478kts
24-Nov-18 17:58 36.226434 -119.610590 183 37068ft 477kts
24-Nov-18 17:59 36.093953 -119.612865 183 37068ft 477kts
24-Nov-18 18:00 35.962203 -119.624953 195 37077ft 473kts
24-Nov-18 18:01 35.836039 -119.670331 199 37082ft 471kts
24-Nov-18 18:02 35.710595 -119.716917 199 37079ft 471kts
24-Nov-18 18:03 35.582598 -119.753884 193 37077ft 474kts
24-Nov-18 18:04 35.453270 -119.784954 193 37074ft 473kts
24-Nov-18 18:05 35.322897 -119.810367 178 36815ft 480kts
24-Nov-18 18:06 35.204662 -119.740651 143 35822ft 480kts
24-Nov-18 18:07 35.098583 -119.643910 142 34819ft 459kts
24-Nov-18 18:08 34.996685 -119.550199 142 32607ft 454kts
24-Nov-18 18:09 34.897876 -119.459512 144 28742ft 432kts
24-Nov-18 18:10 34.802966 -119.375265 143 26877ft 420kts
24-Nov-18 18:11 34.708507 -119.291991 144 25097ft 414kts
24-Nov-18 18:12 34.615740 -119.211529 144 23224ft 407kts
24-Nov-18 18:13 34.525019 -119.132527 143 21167ft 396kts
24-Nov-18 18:14 34.436951 -119.054710 144 19171ft 387kts
24-Nov-18 18:15 34.350383 -118.979713 143 17186ft 375kts
24-Nov-18 18:16 34.271921 -118.908850 142 15462ft 334kts
24-Nov-18 18:17 34.199811 -118.842784 141 13809ft 313kts
24-Nov-18 18:18 34.133783 -118.776852 136 12342ft 306kts
24-Nov-18 18:19 34.071558 -118.709194 136 11006ft 296kts
24-Nov-18 18:20 34.028075 -118.631117 95 9691ft 280kts
24-Nov-18 18:21 34.018055 -118.539166 93 8451ft 273kts
24-Nov-18 18:22 34.012777 -118.449042 79 7227ft 264kts
24-Nov-18 18:23 34.026099 -118.365934 76 5282ft 247kts
24-Nov-18 18:24 34.034819 -118.284056 82 3646ft 245kts
24-Nov-18 18:25 34.042561 -118.212307 82 3615ft 196kts
24-Nov-18 18:26 34.026388 -118.150672 112 3613ft 194kts
24-Nov-18 18:27 34.000633 -118.096034 162 3605ft 190kts
24-Nov-18 18:28 33.965789 -118.133175 245 3614ft 186kts
24-Nov-18 18:29 33.957052 -118.190567 261 3185ft 160kts
24-Nov-18 18:30 33.951903 -118.240554 261 2466ft 142kts
24-Nov-18 18:31 33.947408 -118.284581 262 1760ft 131kts
24-Nov-18 18:32 33.942919 -118.328490 262 1048ft 131kts
24-Nov-18 18:33 33.938654 -118.371091 267 416ft 121kts
24-Nov-18 18:34 33.935617 -118.400794 274 140ft 32kts
24-Nov-18 18:35 33.936095 -118.403287 287 140ft 0kts
24-Nov-18 18:36 33.936095 -118.403290 287 140ft 0kts
24-Nov-18 18:37 33.936108 -118.405623 263 140ft 17kts
24-Nov-18 18:38 33.937301 -118.409121 355 140ft 14kts
24-Nov-18 18:39 33.940644 -118.407873 83 140ft 7kts
24-Nov-18 18:40 33.940728 -118.407449 73 140ft 0kts
24-Nov-18 18:41 33.940728 -118.407449 73 140ft 0kts
24-Nov-18 18:42 33.940728 -118.407449 73 140ft 0kts
24-Nov-18 18:43 33.940728 -118.407449 73 140ft 0kts
24-Nov-18 18:44 33.940728 -118.407449 73 140ft 0kts
24-Nov-18 18:45 33.940728 -118.407449 73 140ft 0kts

Navigation Log

Ident Type
Flight plan parsing failed, navigation log unavailable